Terminal Aerodrome Forecast
Issued by NWS Northern Indiana

Home | Current Version | Previous Version | Text Only | Print | Product List | Glossary On
Versions: 1 2 3 4 5 6 7 8 9 10 11 12 13 14 15 16 17 18
000
FTUS43 KIWX 210500
TAFFWA
TAF
KFWA 210539Z 2106/2206 23005KT P6SM SCT060 BKN100
     FM211100 21005KT P6SM SCT030 BKN060
      TEMPO 2113/2117 4SM TSRA BR BKN060CB
     FM211700 22010KT P6SM SCT060
      TEMPO 2117/2121 3SM TSRA BR OVC020CB
     FM220000 23007KT P6SM VCTS BKN060CB=

USA.gov is the U.S. government's official web portal to all federal, state and local government web resources and services.